Time;durP1;ratioP1;P1;durP2;ratioP2;P2;SDS_P1;SDS_P2;PMS_P1;PMS_P2;Temp;Humidity;BMP_temperature;BMP_pressure;BME280_temperature;BME280_humidity;BME280_pressure;Samples;Min_cycle;Max_cycle;Signal;HPM_P1;HPM_P2
2022/07/07 00:01:02;;;;;;;0.93;0.67;;;;;;;25.22;42.85;95064.06;5034869;28;20258;-72
2022/07/07 00:03:29;;;;;;;0.30;0.30;;;;;;;25.24;43.08;95072.50;5030936;28;20256;-72
2022/07/07 00:05:56;;;;;;;0.30;0.30;;;;;;;25.08;43.21;95064.44;5031978;28;20231;-70
2022/07/07 00:08:23;;;;;;;1.00;0.90;;;;;;;25.38;42.60;95062.19;5019811;28;20202;-70
2022/07/07 00:10:50;;;;;;;1.60;0.73;;;;;;;24.93;43.17;95052.56;5041118;28;20258;-71
2022/07/07 00:13:17;;;;;;;0.20;0.20;;;;;;;24.76;43.86;95074.28;5039269;28;20656;-71
2022/07/07 00:15:47;;;;;;;0.60;0.60;;;;;;;24.89;43.79;95073.13;5052562;28;20193;-69
2022/07/07 00:18:15;;;;;;;0.57;0.57;;;;;;;24.97;43.44;95074.88;5045833;28;20201;-70
2022/07/07 00:20:42;;;;;;;0.33;0.33;;;;;;;25.54;42.15;95076.41;5043968;28;20204;-71
2022/07/07 00:23:08;;;;;;;0.30;0.30;;;;;;;25.71;41.86;95066.09;5051321;28;20212;-70
2022/07/07 00:25:35;;;;;;;0.70;0.60;;;;;;;25.47;42.72;95070.88;5040979;28;20250;-70
2022/07/07 00:28:02;;;;;;;0.30;0.30;;;;;;;25.53;42.70;95069.50;5047883;28;20645;-70
2022/07/07 00:30:30;;;;;;;0.27;0.27;;;;;;;25.68;41.95;95072.16;5042733;28;20209;-70
2022/07/07 00:32:56;;;;;;;0.90;0.63;;;;;;;25.53;42.48;95072.19;5046426;28;20203;-70
2022/07/07 00:35:23;;;;;;;0.43;0.43;;;;;;;25.45;42.82;95067.75;5037281;28;20198;-70
2022/07/07 00:37:50;;;;;;;0.17;0.17;;;;;;;25.30;43.11;95074.63;5037874;28;20204;-70
2022/07/07 00:40:17;;;;;;;0.23;0.23;;;;;;;25.16;43.14;95086.88;5037236;28;20287;-71
2022/07/07 00:42:44;;;;;;;0.43;0.43;;;;;;;25.19;42.80;95076.22;5051882;28;20224;-70
2022/07/07 00:45:11;;;;;;;0.27;0.27;;;;;;;25.06;43.19;95078.19;5037487;28;20289;-73
2022/07/07 00:47:40;;;;;;;0.20;0.20;;;;;;;25.31;42.75;95083.44;5041008;28;20209;-73
2022/07/07 00:50:09;;;;;;;0.97;0.70;;;;;;;25.61;42.52;95076.59;5014759;28;20264;-71
2022/07/07 00:52:37;;;;;;;0.97;0.97;;;;;;;25.17;42.84;95072.31;5011401;28;20229;-71
2022/07/07 00:55:08;;;;;;;0.40;0.40;;;;;;;25.30;42.21;95066.56;5032919;28;20194;-69
2022/07/07 00:57:35;;;;;;;0.77;0.70;;;;;;;25.26;42.47;95071.06;5032950;28;20196;-71
2022/07/07 01:00:14;;;;;;;0.23;0.23;;;;;;;25.28;42.50;95073.38;5036895;28;20188;-71
2022/07/07 01:02:42;;;;;;;0.27;0.27;;;;;;;25.03;42.95;95073.53;5028811;28;20213;-70
2022/07/07 01:05:09;;;;;;;0.27;0.27;;;;;;;24.88;43.12;95078.81;5042363;28;20198;-70
2022/07/07 01:07:38;;;;;;;1.90;0.37;;;;;;;25.06;43.04;95072.84;5035502;28;20299;-72
2022/07/07 01:10:07;;;;;;;0.10;0.10;;;;;;;24.70;43.27;95074.84;5019577;28;20247;-68
2022/07/07 01:12:36;;;;;;;0.30;0.30;;;;;;;25.23;42.23;95079.00;5029641;28;20644;-71
2022/07/07 01:15:04;;;;;;;0.83;0.83;;;;;;;25.21;42.15;95057.91;5019277;28;20189;-70
2022/07/07 01:17:31;;;;;;;0.30;0.30;;;;;;;25.39;41.60;95080.63;5044686;28;20200;-70
2022/07/07 01:19:58;;;;;;;0.23;0.23;;;;;;;25.54;41.55;95071.03;5050541;28;20785;-70
2022/07/07 01:22:28;;;;;;;0.53;0.53;;;;;;;25.57;41.30;95067.66;5050440;28;20664;-71
2022/07/07 01:24:55;;;;;;;0.43;0.43;;;;;;;25.05;42.47;95076.63;5022051;28;20679;-70
2022/07/07 01:27:22;;;;;;;1.03;0.93;;;;;;;25.45;41.69;95075.78;5038935;28;20212;-69
2022/07/07 01:29:53;;;;;;;0.20;0.20;;;;;;;24.53;43.05;95081.22;5029293;28;20683;-71
2022/07/07 01:32:21;;;;;;;0.73;0.63;;;;;;;24.55;43.22;95079.00;5040302;28;20196;-68
2022/07/07 01:34:49;;;;;;;4.80;0.67;;;;;;;24.06;44.10;95085.53;5036077;28;20236;-65
2022/07/07 01:37:18;;;;;;;0.43;0.43;;;;;;;23.82;44.30;95082.81;5033126;28;20198;-71
2022/07/07 01:39:45;;;;;;;0.33;0.33;;;;;;;24.40;43.74;95082.38;5038638;28;20628;-70
2022/07/07 01:42:12;;;;;;;1.13;1.03;;;;;;;23.92;44.88;95082.41;5025157;28;20196;-70
2022/07/07 01:44:41;;;;;;;0.30;0.30;;;;;;;24.10;44.50;95084.53;5050262;28;20309;-69
2022/07/07 01:47:09;;;;;;;0.50;0.50;;;;;;;24.51;43.56;95080.78;5049702;28;20300;-70
2022/07/07 01:49:36;;;;;;;0.27;0.27;;;;;;;24.65;43.27;95073.16;5050227;28;20828;-71
2022/07/07 01:52:05;;;;;;;0.57;0.57;;;;;;;24.64;43.04;95076.19;5031697;28;20266;-72
2022/07/07 01:54:33;;;;;;;0.43;0.43;;;;;;;24.58;43.06;95072.97;5030060;28;20677;-70
2022/07/07 01:57:00;;;;;;;0.40;0.40;;;;;;;24.71;42.32;95065.69;5015977;28;20660;-70
2022/07/07 01:59:28;;;;;;;0.57;0.37;;;;;;;24.44;43.27;95074.44;5016303;28;20194;-69
2022/07/07 02:01:55;;;;;;;0.50;0.50;;;;;;;24.63;42.74;95072.75;5032910;28;20262;-70
2022/07/07 02:04:22;;;;;;;0.40;0.40;;;;;;;24.82;42.32;95062.19;5028629;28;20674;-70
2022/07/07 02:06:50;;;;;;;0.30;0.30;;;;;;;24.68;42.54;95061.78;5026930;28;20193;-70
2022/07/07 02:09:17;;;;;;;0.37;0.37;;;;;;;24.24;43.21;95068.13;5017704;28;20263;-70
2022/07/07 02:11:44;;;;;;;1.40;0.73;;;;;;;24.21;43.04;95076.84;5041087;28;20259;-69
2022/07/07 02:14:11;;;;;;;0.20;0.20;;;;;;;24.46;42.35;95075.66;5043324;28;20196;-69
2022/07/07 02:16:38;;;;;;;0.30;0.30;;;;;;;24.08;43.43;95077.94;5036026;28;20196;-70
2022/07/07 02:19:06;;;;;;;2.07;0.37;;;;;;;24.45;42.98;95074.09;5024205;28;20221;-70
2022/07/07 02:21:34;;;;;;;0.23;0.23;;;;;;;24.58;41.90;95070.28;5047841;28;20278;-70
2022/07/07 02:24:01;;;;;;;1.23;0.70;;;;;;;24.01;42.75;95075.06;5037540;28;20219;-72
2022/07/07 02:26:29;;;;;;;0.23;0.23;;;;;;;24.30;42.28;95082.84;5043068;28;20225;-71
2022/07/07 02:28:56;;;;;;;0.57;0.57;;;;;;;24.35;41.91;95079.16;5039472;28;20193;-70
2022/07/07 02:31:23;;;;;;;0.10;0.10;;;;;;;24.65;41.49;95086.56;5048382;28;20196;-71
2022/07/07 02:33:50;;;;;;;0.20;0.20;;;;;;;24.54;42.17;95082.78;5049200;28;20663;-71
2022/07/07 02:36:19;;;;;;;0.37;0.37;;;;;;;23.97;42.46;95087.50;5022811;28;20216;-70
2022/07/07 02:38:46;;;;;;;0.67;0.30;;;;;;;24.19;42.48;95087.09;5038198;28;20623;-69
2022/07/07 02:41:13;;;;;;;0.27;0.27;;;;;;;23.92;42.47;95082.41;5052746;28;20273;-70
2022/07/07 02:43:39;;;;;;;0.30;0.30;;;;;;;24.14;42.03;95084.66;5042346;28;20769;-71
2022/07/07 02:46:07;;;;;;;0.40;0.30;;;;;;;24.19;42.30;95072.91;5029136;28;20218;-71
2022/07/07 02:48:34;;;;;;;0.30;0.30;;;;;;;24.34;41.96;95088.31;5029600;28;20255;-71
2022/07/07 02:51:00;;;;;;;0.13;0.13;;;;;;;24.05;41.94;95092.00;5016308;28;20193;-72
2022/07/07 02:53:27;;;;;;;0.53;0.53;;;;;;;24.11;41.95;95090.66;5015775;28;20648;-70
2022/07/07 02:55:55;;;;;;;0.60;0.60;;;;;;;23.90;42.50;95092.66;5016294;28;20242;-71
2022/07/07 02:58:23;;;;;;;0.73;0.73;;;;;;;24.06;42.46;95093.56;5050243;28;20929;-70
2022/07/07 03:00:51;;;;;;;0.27;0.27;;;;;;;24.23;41.62;95087.19;5045986;28;20197;-72
2022/07/07 03:03:18;;;;;;;0.23;0.23;;;;;;;24.03;42.34;95094.25;5047300;28;20219;-72
2022/07/07 03:05:45;;;;;;;0.10;0.10;;;;;;;23.89;42.33;95089.19;5032536;28;20262;-73
2022/07/07 03:08:13;;;;;;;0.27;0.27;;;;;;;24.19;41.88;95103.16;5033509;28;20698;-71
2022/07/07 03:10:41;;;;;;;0.40;0.40;;;;;;;24.30;41.57;95104.28;5023093;28;20567;-71
2022/07/07 03:13:08;;;;;;;0.30;0.30;;;;;;;23.82;42.18;95099.66;5039678;28;20667;-70
2022/07/07 03:15:35;;;;;;;0.10;0.10;;;;;;;23.85;42.15;95100.88;5051786;28;20229;-71
2022/07/07 03:18:02;;;;;;;0.10;0.10;;;;;;;24.05;42.22;95103.50;5029148;28;20745;-71
2022/07/07 03:20:29;;;;;;;0.37;0.37;;;;;;;24.31;41.68;95099.69;5035025;28;20238;-70
2022/07/07 03:22:56;;;;;;;0.17;0.17;;;;;;;24.31;41.52;95095.09;5038582;28;20242;-69
2022/07/07 03:25:23;;;;;;;0.30;0.30;;;;;;;24.32;41.56;95091.34;5049539;28;20736;-71
2022/07/07 03:27:49;;;;;;;0.27;0.27;;;;;;;24.53;41.43;95089.28;5040882;28;20192;-71
2022/07/07 03:30:16;;;;;;;0.77;0.77;;;;;;;24.35;41.75;95093.31;5043320;28;20296;-71
2022/07/07 03:32:43;;;;;;;0.57;0.57;;;;;;;24.21;42.17;95108.97;5044208;28;20198;-70
2022/07/07 03:35:10;;;;;;;0.20;0.20;;;;;;;23.98;42.18;95102.44;5025925;28;20688;-70
2022/07/07 03:37:38;;;;;;;0.20;0.20;;;;;;;24.39;41.26;95091.53;5030139;28;20985;-71
2022/07/07 03:40:06;;;;;;;0.67;0.60;;;;;;;24.32;41.64;95096.69;5039701;28;20227;-71
2022/07/07 03:42:35;;;;;;;0.10;0.10;;;;;;;24.13;41.83;95093.00;5026746;28;20415;-70
2022/07/07 03:45:03;;;;;;;0.10;0.10;;;;;;;24.42;41.22;95104.25;5045650;28;20236;-70
2022/07/07 03:47:30;;;;;;;0.20;0.20;;;;;;;24.26;42.03;95107.94;5036714;28;20288;-70
2022/07/07 03:49:57;;;;;;;0.83;0.83;;;;;;;24.19;41.19;95080.94;5039030;28;20190;-66
2022/07/07 03:52:24;;;;;;;0.50;0.50;;;;;;;24.46;40.99;95096.31;5027747;28;20204;-68
2022/07/07 03:54:50;;;;;;;0.20;0.20;;;;;;;23.80;42.47;95093.06;5047290;28;20224;-70
2022/07/07 03:57:17;;;;;;;0.87;0.73;;;;;;;24.39;41.32;95104.94;5020471;28;20194;-71
2022/07/07 03:59:44;;;;;;;0.20;0.20;;;;;;;23.73;42.24;95111.56;5045797;28;20593;-70
2022/07/07 04:02:11;;;;;;;0.30;0.30;;;;;;;24.16;41.70;95106.50;5015224;28;20198;-70
2022/07/07 04:04:38;;;;;;;0.27;0.27;;;;;;;23.73;42.01;95095.53;5038852;28;20726;-64
2022/07/07 04:07:05;;;;;;;0.57;0.57;;;;;;;24.27;42.10;95104.16;5012674;28;20213;-72
2022/07/07 04:09:32;;;;;;;0.30;0.30;;;;;;;23.69;42.40;95108.00;5021249;28;20202;-64
2022/07/07 04:11:58;;;;;;;0.27;0.27;;;;;;;23.79;42.29;95115.59;5052056;28;20674;-69
2022/07/07 04:14:26;;;;;;;0.30;0.30;;;;;;;24.22;41.49;95102.47;5034698;28;20199;-68
2022/07/07 04:16:53;;;;;;;0.30;0.30;;;;;;;24.20;41.07;95107.38;5032072;28;20198;-70
2022/07/07 04:19:19;;;;;;;0.30;0.30;;;;;;;24.62;40.89;95111.34;5017152;28;20718;-66
2022/07/07 04:21:46;;;;;;;0.23;0.23;;;;;;;24.47;40.88;95109.38;5031261;28;20193;-70
2022/07/07 04:24:13;;;;;;;0.20;0.20;;;;;;;24.60;40.36;95110.91;5032084;28;20208;-69
2022/07/07 04:26:40;;;;;;;0.17;0.17;;;;;;;24.16;41.14;95119.88;5051418;28;20714;-70
2022/07/07 04:29:07;;;;;;;0.50;0.50;;;;;;;23.97;41.97;95112.41;5051256;28;20212;-68
2022/07/07 04:31:34;;;;;;;0.10;0.10;;;;;;;24.44;40.66;95112.72;5024006;28;20199;-69
2022/07/07 04:34:04;;;;;;;0.13;0.13;;;;;;;24.25;41.84;95107.16;5039316;28;20672;-66
2022/07/07 04:36:31;;;;;;;1.00;0.87;;;;;;;24.36;41.36;95118.97;5031669;28;20251;-68
2022/07/07 04:38:58;;;;;;;1.67;1.57;;;;;;;24.31;41.52;95107.72;5031727;28;20205;-71
2022/07/07 04:41:25;;;;;;;0.50;0.50;;;;;;;24.50;41.23;95116.75;5042437;28;20225;-69
2022/07/07 04:43:52;;;;;;;13.03;3.27;;;;;;;24.71;40.36;95112.03;5020174;28;20213;-69
2022/07/07 04:46:19;;;;;;;9.33;2.67;;;;;;;24.93;40.44;95111.53;5032312;28;20374;-70
2022/07/07 04:48:46;;;;;;;2.03;1.70;;;;;;;25.11;40.28;95114.69;5036387;28;20252;-69
2022/07/07 04:51:13;;;;;;;1.60;1.50;;;;;;;24.90;40.48;95106.84;5012259;28;20207;-66
2022/07/07 04:53:40;;;;;;;2.00;0.83;;;;;;;24.72;40.87;95116.28;5031592;28;20197;-65
2022/07/07 04:56:06;;;;;;;0.50;0.50;;;;;;;24.73;41.47;95111.69;5018839;28;20304;-67
2022/07/07 04:58:33;;;;;;;0.60;0.60;;;;;;;24.48;40.68;95116.31;5024846;28;20224;-68
2022/07/07 05:01:00;;;;;;;0.37;0.37;;;;;;;24.93;39.96;95113.41;5011627;28;20201;-68
2022/07/07 05:03:27;;;;;;;0.20;0.20;;;;;;;24.70;40.46;95113.16;5045371;28;20240;-68
2022/07/07 05:05:55;;;;;;;0.27;0.27;;;;;;;24.95;40.07;95111.19;5041515;28;20672;-67
2022/07/07 05:08:22;;;;;;;0.10;0.10;;;;;;;24.74;40.34;95097.94;5022228;28;20205;-69
2022/07/07 05:10:49;;;;;;;0.30;0.30;;;;;;;25.29;39.79;95107.16;5026061;28;20242;-70
2022/07/07 05:13:16;;;;;;;0.30;0.30;;;;;;;25.05;39.98;95103.44;5037699;28;20196;-63
2022/07/07 05:15:43;;;;;;;26.10;3.33;;;;;;;25.37;40.12;95098.94;5050955;28;20200;-68
2022/07/07 05:18:10;;;;;;;0.20;0.20;;;;;;;24.86;41.14;95100.63;5036324;28;20199;-68
2022/07/07 05:20:55;;;;;;;0.50;0.50;;;;;;;25.51;40.10;95095.88;5036196;28;20212;-66
2022/07/07 05:23:25;;;;;;;0.57;0.50;;;;;;;25.19;39.86;95096.91;5044066;28;20250;-61
2022/07/07 05:25:52;;;;;;;2.63;1.37;;;;;;;25.27;40.72;95109.41;5037283;28;20225;-66
2022/07/07 05:28:20;;;;;;;0.63;0.53;;;;;;;25.13;40.43;95104.41;5022734;28;20699;-67
2022/07/07 05:30:47;;;;;;;0.20;0.20;;;;;;;25.41;39.70;95096.38;5044630;28;20197;-66
2022/07/07 05:33:14;;;;;;;0.10;0.10;;;;;;;25.53;39.87;95101.69;5018697;28;20209;-66
2022/07/07 05:35:41;;;;;;;0.30;0.30;;;;;;;25.44;40.11;95103.72;5026487;28;20205;-65
2022/07/07 05:38:08;;;;;;;0.20;0.20;;;;;;;25.59;39.65;95097.63;5040815;28;20255;-67
2022/07/07 05:40:34;;;;;;;0.83;0.50;;;;;;;25.32;40.09;95107.25;5029180;28;20208;-66
2022/07/07 05:43:01;;;;;;;0.20;0.20;;;;;;;25.32;40.47;95103.78;5036452;28;20653;-66
2022/07/07 05:45:28;;;;;;;0.20;0.20;;;;;;;25.24;40.44;95110.06;5034111;28;20212;-67
2022/07/07 05:47:55;;;;;;;0.20;0.20;;;;;;;25.29;40.56;95107.16;5038907;28;20208;-66
2022/07/07 05:50:22;;;;;;;0.53;0.50;;;;;;;25.23;39.90;95113.88;5009079;28;20197;-67
2022/07/07 05:52:49;;;;;;;0.27;0.27;;;;;;;25.49;39.51;95112.31;5023066;28;20192;-64
2022/07/07 05:55:16;;;;;;;0.30;0.30;;;;;;;25.46;39.73;95106.84;5008860;28;20202;-63
2022/07/07 05:57:43;;;;;;;0.10;0.10;;;;;;;25.30;39.42;95114.84;5021072;28;20193;-67
2022/07/07 06:00:10;;;;;;;0.30;0.30;;;;;;;25.70;39.06;95114.78;5028571;28;20247;-66
2022/07/07 06:02:37;;;;;;;0.40;0.37;;;;;;;25.74;38.96;95110.28;5028949;28;20204;-66
2022/07/07 06:05:05;;;;;;;2.63;1.23;;;;;;;25.86;39.00;95108.28;5041892;28;20224;-67
2022/07/07 06:07:32;;;;;;;0.50;0.47;;;;;;;25.76;39.11;95105.34;5034179;28;20542;-64
2022/07/07 06:09:59;;;;;;;0.27;0.27;;;;;;;25.55;39.03;95102.09;5017172;28;20201;-65
2022/07/07 06:12:26;;;;;;;1.23;1.13;;;;;;;25.96;39.50;95115.84;5028523;28;20205;-67
2022/07/07 06:14:53;;;;;;;0.17;0.17;;;;;;;25.65;39.05;95120.41;5022207;28;20205;-65
2022/07/07 06:17:20;;;;;;;0.83;0.70;;;;;;;25.37;39.62;95114.25;5033420;28;20204;-66
2022/07/07 06:20:08;;;;;;;0.20;0.20;;;;;;;25.32;40.30;95112.59;5022659;28;20185;-67
2022/07/07 06:22:35;;;;;;;0.20;0.20;;;;;;;25.51;39.98;95117.34;5016423;28;20197;-67
2022/07/07 06:25:02;;;;;;;0.40;0.40;;;;;;;25.69;39.29;95113.97;5029483;28;20264;-67
2022/07/07 06:27:29;;;;;;;0.13;0.13;;;;;;;25.66;39.38;95121.94;5021637;28;20209;-65
2022/07/07 06:29:57;;;;;;;0.17;0.17;;;;;;;25.38;39.46;95121.22;5037330;28;20674;-62
2022/07/07 06:32:24;;;;;;;0.27;0.27;;;;;;;25.69;39.81;95126.66;5033898;28;20196;-65
2022/07/07 06:34:50;;;;;;;0.30;0.30;;;;;;;25.71;39.92;95124.41;5048792;28;20581;-67
2022/07/07 06:37:17;;;;;;;0.30;0.30;;;;;;;25.81;39.83;95118.50;5048572;28;20201;-64
2022/07/07 06:39:44;;;;;;;0.47;0.47;;;;;;;25.83;39.86;95124.31;5037112;28;20258;-68
2022/07/07 06:42:11;;;;;;;0.20;0.20;;;;;;;25.82;38.92;95122.75;5043048;28;20216;-67
2022/07/07 06:44:41;;;;;;;1.57;0.87;;;;;;;25.47;38.84;95140.63;5017994;28;20225;-65
2022/07/07 06:47:08;;;;;;;0.60;0.60;;;;;;;25.68;39.05;95125.84;5028262;28;20245;-68
2022/07/07 06:49:35;;;;;;;0.57;0.57;;;;;;;25.41;39.52;95123.22;5041038;28;20274;-69
2022/07/07 06:52:02;;;;;;;0.40;0.40;;;;;;;25.58;39.26;95120.22;5043714;28;20382;-68
2022/07/07 06:54:29;;;;;;;0.10;0.10;;;;;;;25.94;38.95;95130.72;5036597;28;20203;-61
2022/07/07 06:56:56;;;;;;;1.90;0.73;;;;;;;25.76;39.35;95124.13;5010764;28;20574;-67
2022/07/07 06:59:23;;;;;;;0.87;0.80;;;;;;;26.52;38.73;95115.59;5013523;28;20209;-69
2022/07/07 07:01:49;;;;;;;1.13;1.03;;;;;;;26.62;37.37;95125.81;5013032;28;20197;-68
2022/07/07 07:04:16;;;;;;;0.37;0.37;;;;;;;26.17;38.81;95118.25;5039322;28;20270;-65
2022/07/07 07:06:44;;;;;;;0.23;0.23;;;;;;;26.62;38.30;95123.16;5018691;28;20202;-67
2022/07/07 07:09:11;;;;;;;0.40;0.40;;;;;;;27.22;38.05;95116.34;5015635;28;20230;-68
2022/07/07 07:11:38;;;;;;;0.10;0.10;;;;;;;26.98;37.61;95118.19;5022052;28;20221;-67
2022/07/07 07:14:06;;;;;;;1.70;0.60;;;;;;;27.27;37.35;95119.53;5023187;28;20203;-67
2022/07/07 07:16:33;;;;;;;30.90;2.60;;;;;;;26.89;36.30;95106.09;5021040;28;20205;-68
2022/07/07 07:18:59;;;;;;;0.30;0.30;;;;;;;26.76;35.72;95110.81;5036750;28;20201;-67
2022/07/07 07:21:26;;;;;;;0.20;0.20;;;;;;;27.03;35.71;95115.22;5038558;28;20676;-66
2022/07/07 07:23:53;;;;;;;1.03;0.77;;;;;;;27.14;35.82;95122.72;5029831;28;20652;-66
2022/07/07 07:26:20;;;;;;;0.40;0.40;;;;;;;27.45;35.55;95119.88;5029565;28;20324;-68
2022/07/07 07:28:47;;;;;;;0.27;0.27;;;;;;;27.45;34.76;95114.50;5011971;28;20629;-65
2022/07/07 07:31:14;;;;;;;0.50;0.50;;;;;;;27.52;35.60;95120.00;5027876;28;20592;-67
2022/07/07 07:33:41;;;;;;;0.43;0.43;;;;;;;27.70;34.86;95108.44;5039592;28;20715;-66
2022/07/07 07:36:09;;;;;;;0.50;0.50;;;;;;;28.02;35.17;95119.78;5038964;28;20201;-69
2022/07/07 07:38:37;;;;;;;0.30;0.23;;;;;;;27.90;34.18;95125.34;5013005;28;20213;-69
2022/07/07 07:41:05;;;;;;;0.10;0.10;;;;;;;28.02;34.68;95114.41;5036315;28;20284;-68
2022/07/07 07:43:33;;;;;;;0.33;0.33;;;;;;;28.06;33.48;95117.94;5052601;28;20226;-68
2022/07/07 07:46:06;;;;;;;0.40;0.40;;;;;;;27.77;33.55;95110.50;5052329;28;20760;-65
2022/07/07 07:48:33;;;;;;;0.20;0.20;;;;;;;28.11;34.38;95103.38;5037886;28;20664;-70
2022/07/07 07:51:00;;;;;;;0.30;0.30;;;;;;;28.21;33.89;95110.84;5032978;28;20209;-67
2022/07/07 07:53:27;;;;;;;0.30;0.30;;;;;;;27.93;33.01;95109.28;5016246;28;20206;-66
2022/07/07 07:55:55;;;;;;;0.30;0.30;;;;;;;28.23;32.71;95112.03;5029987;28;20256;-67
2022/07/07 07:58:22;;;;;;;0.40;0.40;;;;;;;28.35;32.90;95114.53;5012657;28;20649;-70
2022/07/07 08:00:49;;;;;;;0.37;0.37;;;;;;;27.78;32.33;95112.03;5012611;28;20281;-69
2022/07/07 08:03:17;;;;;;;0.20;0.20;;;;;;;28.12;32.27;95121.88;5014097;28;20284;-67
2022/07/07 08:05:43;;;;;;;0.47;0.47;;;;;;;27.73;33.30;95109.66;5039929;28;20213;-67
2022/07/07 08:08:14;;;;;;;0.33;0.33;;;;;;;27.67;33.63;95116.44;5037100;28;20201;-64
2022/07/07 08:10:40;;;;;;;0.47;0.47;;;;;;;28.18;32.89;95112.34;5039406;28;20200;-66
2022/07/07 08:13:07;;;;;;;0.20;0.20;;;;;;;28.67;33.59;95113.09;5032057;28;20201;-66
2022/07/07 08:15:34;;;;;;;3.67;1.47;;;;;;;28.82;33.44;95106.78;5020497;28;20259;-66
2022/07/07 08:18:02;;;;;;;0.30;0.30;;;;;;;28.55;32.40;95105.25;5033806;28;20238;-67
2022/07/07 08:20:30;;;;;;;1.60;1.00;;;;;;;27.85;32.57;95107.56;5052060;28;20235;-61
2022/07/07 08:22:57;;;;;;;0.67;0.67;;;;;;;28.13;32.62;95104.56;5046464;28;20208;-69
2022/07/07 08:25:23;;;;;;;0.50;0.33;;;;;;;28.38;33.07;95113.81;5020509;28;20244;-67
2022/07/07 08:27:50;;;;;;;0.60;0.60;;;;;;;28.07;33.29;95116.00;5045592;28;20663;-66
2022/07/07 08:30:18;;;;;;;0.37;0.37;;;;;;;27.79;32.72;95108.97;5039098;28;20318;-67
2022/07/07 08:32:45;;;;;;;0.77;0.77;;;;;;;27.81;32.94;95122.06;5051503;28;20204;-62
2022/07/07 08:35:16;;;;;;;0.17;0.17;;;;;;;27.49;33.71;95105.38;5037439;28;20644;-65
2022/07/07 08:37:43;;;;;;;0.60;0.60;;;;;;;28.32;33.04;95115.25;5038640;28;20636;-63
2022/07/07 08:40:11;;;;;;;0.30;0.30;;;;;;;28.42;32.78;95108.47;5044964;28;20197;-64
2022/07/07 08:42:39;;;;;;;0.23;0.23;;;;;;;28.37;31.72;95111.47;5042214;28;20228;-70
2022/07/07 08:45:06;;;;;;;0.30;0.30;;;;;;;28.31;32.57;95121.00;5045238;28;20308;-67
2022/07/07 08:47:33;;;;;;;0.50;0.50;;;;;;;28.86;33.34;95115.69;5011416;28;20252;-67
2022/07/07 08:50:00;;;;;;;0.20;0.20;;;;;;;29.21;31.63;95101.09;5043332;28;20687;-66
2022/07/07 08:52:28;;;;;;;0.27;0.27;;;;;;;28.41;32.08;95110.38;5051102;28;20192;-67
2022/07/07 08:54:55;;;;;;;0.87;0.87;;;;;;;28.59;32.46;95119.56;5045442;28;20638;-66
2022/07/07 08:57:23;;;;;;;0.20;0.20;;;;;;;28.59;32.81;95114.16;5029568;28;20351;-65
2022/07/07 08:59:51;;;;;;;0.30;0.30;;;;;;;28.68;33.11;95117.38;5051111;28;20200;-66
2022/07/07 09:02:17;;;;;;;0.20;0.20;;;;;;;29.48;32.91;95107.97;5035891;28;20275;-63
2022/07/07 09:04:47;;;;;;;0.20;0.20;;;;;;;29.47;31.91;95109.88;5024965;28;20247;-63
2022/07/07 09:07:14;;;;;;;0.70;0.60;;;;;;;29.75;31.95;95104.03;5041878;28;20283;-64
2022/07/07 09:09:43;;;;;;;0.63;0.57;;;;;;;29.62;32.74;95106.19;5021564;28;20204;-68
2022/07/07 09:12:14;;;;;;;0.30;0.30;;;;;;;29.64;32.33;95106.59;5038529;28;20201;-67
2022/07/07 09:14:54;;;;;;;0.30;0.30;;;;;;;29.55;31.43;95105.31;5031004;28;20209;-66
2022/07/07 09:17:29;;;;;;;0.33;0.33;;;;;;;29.93;30.90;95097.63;5030398;28;20204;-66
2022/07/07 09:20:09;;;;;;;0.77;0.67;;;;;;;30.05;32.44;95102.00;5017511;28;20218;-64
2022/07/07 09:22:52;;;;;;;0.40;0.40;;;;;;;30.30;32.60;95092.16;5016743;28;20209;-66
2022/07/07 09:25:28;;;;;;;0.37;0.37;;;;;;;29.45;31.19;95106.00;5029286;28;20607;-62
2022/07/07 09:28:04;;;;;;;0.43;0.43;;;;;;;29.93;32.26;95099.53;5047270;28;20633;-65
2022/07/07 09:30:45;;;;;;;0.40;0.40;;;;;;;30.23;31.72;95096.72;5019762;28;20200;-66
2022/07/07 09:33:23;;;;;;;2.20;0.77;;;;;;;30.09;32.49;95094.66;5033228;28;20306;-67
2022/07/07 09:38:40;;;;;;;0.80;0.80;;;;;;;30.11;31.09;95105.13;5021685;28;20591;-67
2022/07/07 09:41:10;;;;;;;1.03;0.57;;;;;;;30.47;30.72;95096.94;5020331;28;20216;-66
2022/07/07 09:43:45;;;;;;;0.40;0.40;;;;;;;30.56;31.12;95094.66;5033274;28;20242;-64
2022/07/07 09:46:20;;;;;;;0.50;0.50;;;;;;;30.23;32.98;95097.50;5037818;28;20228;-63
2022/07/07 09:48:50;;;;;;;0.57;0.47;;;;;;;30.03;30.50;95098.09;5043685;28;20196;-63
2022/07/07 09:51:24;;;;;;;0.40;0.40;;;;;;;29.99;32.64;95091.88;5029384;28;20281;-63
2022/07/07 09:54:06;;;;;;;0.90;0.83;;;;;;;30.15;31.28;95095.88;5029553;28;20203;-64
2022/07/07 09:56:44;;;;;;;0.37;0.37;;;;;;;30.31;31.54;95085.59;5013572;28;20198;-67
2022/07/07 09:59:16;;;;;;;1.43;0.60;;;;;;;30.20;32.80;95098.22;5010336;28;20205;-66
2022/07/07 10:01:45;;;;;;;0.23;0.23;;;;;;;30.62;31.16;95095.09;5015850;28;20227;-62
2022/07/07 10:04:19;;;;;;;0.43;0.43;;;;;;;29.96;31.33;95093.41;5040397;28;20222;-68
2022/07/07 10:06:46;;;;;;;0.27;0.27;;;;;;;30.03;32.14;95087.28;5027296;28;20208;-64
2022/07/07 10:09:19;;;;;;;0.77;0.40;;;;;;;30.37;31.33;95084.09;5011695;28;20205;-64
2022/07/07 10:11:50;;;;;;;0.63;0.63;;;;;;;30.39;31.78;95079.09;5038463;28;20275;-67
2022/07/07 10:14:22;;;;;;;0.30;0.30;;;;;;;30.59;31.22;95083.09;5035007;28;20232;-64
2022/07/07 10:16:51;;;;;;;0.50;0.50;;;;;;;30.03;30.81;95085.38;5021900;28;20198;-65
2022/07/07 10:19:20;;;;;;;0.50;0.50;;;;;;;30.50;30.52;95079.94;5011115;28;20209;-68
2022/07/07 10:21:50;;;;;;;0.30;0.30;;;;;;;30.28;30.36;95072.84;5049348;28;20318;-65
2022/07/07 10:24:22;;;;;;;0.30;0.30;;;;;;;30.59;31.62;95071.47;5045983;28;20201;-64
2022/07/07 10:26:55;;;;;;;0.20;0.20;;;;;;;30.53;30.44;95073.75;5009772;28;20265;-66
2022/07/07 10:29:47;;;;;;;0.43;0.43;;;;;;;30.25;31.90;95061.97;5036542;28;20298;-65
2022/07/07 10:32:16;;;;;;;0.40;0.40;;;;;;;30.57;32.07;95076.50;5040268;28;20632;-64
2022/07/07 10:34:54;;;;;;;0.30;0.30;;;;;;;30.73;31.25;95077.75;5027821;28;20193;-66
2022/07/07 10:37:22;;;;;;;0.20;0.20;;;;;;;31.21;30.18;95064.84;5018766;28;20684;-65
2022/07/07 10:39:54;;;;;;;0.60;0.60;;;;;;;31.15;30.47;95060.94;5041798;28;20200;-64
2022/07/07 10:42:21;;;;;;;0.20;0.20;;;;;;;30.29;30.05;95060.84;5026539;28;20196;-63
2022/07/07 10:44:50;;;;;;;0.77;0.77;;;;;;;29.81;30.85;95065.50;5035168;28;20197;-62
2022/07/07 10:47:17;;;;;;;0.33;0.33;;;;;;;30.23;31.52;95053.47;5042284;28;20197;-62
2022/07/07 10:49:50;;;;;;;0.30;0.30;;;;;;;30.66;31.32;95042.53;5016070;28;20205;-65
2022/07/07 10:52:19;;;;;;;0.40;0.40;;;;;;;30.72;31.47;95049.16;5015700;28;21644;-64
2022/07/07 10:54:58;;;;;;;0.30;0.30;;;;;;;30.68;31.72;95056.47;5016577;28;20672;-65
2022/07/07 10:57:27;;;;;;;1.80;1.20;;;;;;;30.93;32.19;95051.19;5028179;28;20191;-66
2022/07/07 11:00:01;;;;;;;0.33;0.33;;;;;;;31.52;30.86;95049.84;5033281;28;20299;-66
2022/07/07 11:02:28;;;;;;;0.30;0.30;;;;;;;31.84;30.48;95053.38;5041117;28;20199;-64
2022/07/07 11:04:55;;;;;;;0.57;0.57;;;;;;;32.21;29.95;95045.63;5023887;28;20750;-67
2022/07/07 11:07:24;;;;;;;0.80;0.80;;;;;;;32.80;28.90;95043.97;5025305;28;20209;-63
2022/07/07 11:10:13;;;;;;;0.30;0.30;;;;;;;32.59;28.51;95041.34;5026590;28;20258;-64
2022/07/07 11:12:53;;;;;;;0.60;0.60;;;;;;;31.82;29.89;95039.44;5050872;28;20750;-64
2022/07/07 11:15:27;;;;;;;0.60;0.60;;;;;;;31.42;29.70;95032.41;5042523;28;20289;-62
2022/07/07 11:17:56;;;;;;;0.50;0.50;;;;;;;31.15;29.73;95041.22;5035585;28;20289;-66
2022/07/07 11:20:26;;;;;;;0.40;0.40;;;;;;;30.76;30.64;95032.94;5042498;28;20196;-65
2022/07/07 11:23:05;;;;;;;0.37;0.37;;;;;;;31.47;29.11;95028.56;5052495;28;20262;-68
2022/07/07 11:25:33;;;;;;;0.60;0.60;;;;;;;31.73;29.15;95023.53;5032939;28;20716;-64
2022/07/07 11:28:00;;;;;;;1.03;0.60;;;;;;;32.16;29.90;95018.91;5015167;28;20225;-66
2022/07/07 11:30:28;;;;;;;0.20;0.20;;;;;;;32.01;28.72;95009.25;5033354;28;20185;-65
2022/07/07 11:32:58;;;;;;;0.70;0.70;;;;;;;32.52;28.03;95012.28;5045663;28;20685;-62
2022/07/07 11:35:36;;;;;;;0.20;0.20;;;;;;;32.63;28.32;95004.88;5027495;28;20200;-63
2022/07/07 11:38:09;;;;;;;0.63;0.40;;;;;;;32.22;28.17;95001.09;5037499;28;20205;-61
2022/07/07 11:40:40;;;;;;;0.47;0.47;;;;;;;31.65;29.22;95002.25;5024646;28;20269;-65
2022/07/07 11:43:20;;;;;;;0.37;0.23;;;;;;;31.92;29.88;95010.78;5027160;28;20668;-66